Time;durP1;ratioP1;P1;durP2;ratioP2;P2;SDS_P1;SDS_P2;PMS_P1;PMS_P2;Temp;Humidity;BMP_temperature;BMP_pressure;BME280_temperature;BME280_humidity;BME280_pressure;Samples;Min_cycle;Max_cycle;Signal;HPM_P1;HPM_P2
2023/09/08 00:00:00;;;;;;;7.83;5.10;;;17.00;99.90;;;;;;5037384;28;20153;-93
2023/09/08 00:02:27;;;;;;;7.83;5.20;;;17.10;99.90;;;;;;5037414;28;20218;-93
2023/09/08 00:04:53;;;;;;;6.90;4.83;;;17.40;99.90;;;;;;5037333;28;20149;-93
2023/09/08 00:07:19;;;;;;;8.00;4.83;;;16.90;99.90;;;;;;5024890;28;20146;-95
2023/09/08 00:09:45;;;;;;;7.83;5.17;;;16.70;99.90;;;;;;5020778;28;20150;-95
2023/09/08 00:12:10;;;;;;;6.77;4.80;;;16.80;99.90;;;;;;5020816;28;20138;-95
2023/09/08 00:14:38;;;;;;;8.77;4.60;;;16.70;99.90;;;;;;5020812;28;20142;-94
2023/09/08 00:17:04;;;;;;;6.80;5.30;;;16.80;99.90;;;;;;5020014;28;20145;-94
2023/09/08 00:19:30;;;;;;;7.67;5.27;;;17.20;99.90;;;;;;5037049;28;20141;-95
2023/09/08 00:21:56;;;;;;;8.70;5.40;;;16.60;99.90;;;;;;5037113;28;20138;-94
2023/09/08 00:24:22;;;;;;;7.30;5.40;;;17.50;99.90;;;;;;5037066;28;20205;-94
2023/09/08 00:26:48;;;;;;;8.37;5.33;;;16.70;99.90;;;;;;5030329;28;20146;-94
2023/09/08 00:29:13;;;;;;;6.93;4.80;;;17.20;99.90;;;;;;5020457;28;20172;-94
2023/09/08 00:31:39;;;;;;;10.93;4.37;;;16.60;99.90;;;;;;5020496;28;20206;-93
2023/09/08 00:34:06;;;;;;;8.17;5.43;;;16.90;99.90;;;;;;5020478;28;20249;-93
2023/09/08 00:36:34;;;;;;;5.00;4.50;;;16.60;99.90;;;;;;5019765;28;20166;-95
2023/09/08 00:39:00;;;;;;;6.20;4.40;;;16.90;99.90;;;;;;5020323;28;20142;-94
2023/09/08 00:41:25;;;;;;;10.00;4.90;;;16.70;99.90;;;;;;5019727;28;20225;-94
2023/09/08 00:43:51;;;;;;;8.37;4.77;;;16.30;99.90;;;;;;5018977;28;20142;-92
2023/09/08 00:46:17;;;;;;;5.47;4.70;;;16.60;99.90;;;;;;5015745;28;20174;-93
2023/09/08 00:48:43;;;;;;;10.23;5.67;;;17.30;99.90;;;;;;5012564;28;20150;-92
2023/09/08 00:51:09;;;;;;;9.33;5.53;;;16.70;99.90;;;;;;5034299;28;20154;-93
2023/09/08 00:53:36;;;;;;;7.60;5.60;;;16.60;99.90;;;;;;5035103;28;20173;-92
2023/09/08 00:56:02;;;;;;;11.27;5.50;;;16.40;99.90;;;;;;5034584;28;20163;-91
2023/09/08 00:58:29;;;;;;;6.93;5.30;;;16.40;99.90;;;;;;5018285;28;20150;-92
2023/09/08 01:00:57;;;;;;;9.30;4.77;;;16.40;99.90;;;;;;5035080;28;20138;-92
2023/09/08 01:03:23;;;;;;;11.07;5.73;;;16.20;99.90;;;;;;5035175;28;20142;-93
2023/09/08 01:05:49;;;;;;;6.97;4.90;;;16.30;99.90;;;;;;5035107;28;20146;-93
2023/09/08 01:08:16;;;;;;;8.03;5.17;;;16.20;99.90;;;;;;5033701;28;20164;-95
2023/09/08 01:10:42;;;;;;;8.50;4.67;;;16.30;99.90;;;;;;5026904;28;20190;-93
2023/09/08 01:13:10;;;;;;;10.20;5.27;;;16.20;99.90;;;;;;5018530;28;20168;-94
2023/09/08 01:15:36;;;;;;;8.77;4.87;;;16.40;99.90;;;;;;5018614;28;20158;-93
2023/09/08 01:18:02;;;;;;;7.20;4.77;;;16.10;99.90;;;;;;5003574;28;20157;-94
2023/09/08 01:20:54;;;;;;;7.00;4.80;;;16.10;99.90;;;;;;4998981;28;20146;-93
2023/09/08 01:23:42;;;;;;;10.67;4.90;;;16.10;99.90;;;;;;4999079;28;20143;-93
2023/09/08 01:26:17;;;;;;;6.60;4.70;;;16.30;99.90;;;;;;4999019;28;20139;-93
2023/09/08 01:28:45;;;;;;;9.23;5.10;;;16.10;99.90;;;;;;4999015;28;20146;-93
2023/09/08 01:31:11;;;;;;;7.33;4.27;;;16.00;99.90;;;;;;4998959;28;20218;-93
2023/09/08 01:33:37;;;;;;;7.87;4.70;;;15.90;99.90;;;;;;4998878;28;20174;-93
2023/09/08 01:36:03;;;;;;;7.13;4.97;;;16.20;99.90;;;;;;4998890;28;20142;-94
2023/09/08 01:38:29;;;;;;;10.00;4.83;;;15.90;99.90;;;;;;5001244;28;20178;-94
2023/09/08 01:40:54;;;;;;;9.30;4.97;;;15.80;99.90;;;;;;5002368;28;20170;-93
2023/09/08 01:43:20;;;;;;;8.40;5.00;;;15.60;99.90;;;;;;5002723;28;20154;-94
2023/09/08 01:45:45;;;;;;;6.40;4.50;;;16.10;99.90;;;;;;5005981;28;20154;-94
2023/09/08 01:48:11;;;;;;;5.30;4.80;;;15.80;99.90;;;;;;5003582;28;20162;-93
2023/09/08 01:50:37;;;;;;;11.03;5.07;;;16.20;99.90;;;;;;5018710;28;20186;-92
2023/09/08 01:53:02;;;;;;;5.60;5.07;;;15.70;99.90;;;;;;5018691;28;20247;-92
2023/09/08 01:55:28;;;;;;;8.33;5.47;;;15.70;99.90;;;;;;5018580;28;20143;-93
2023/09/08 01:57:53;;;;;;;8.77;5.53;;;15.30;99.90;;;;;;5002423;28;20218;-94
2023/09/08 02:00:19;;;;;;;10.40;5.17;;;15.60;99.90;;;;;;5002271;28;20218;-93
2023/09/08 02:02:45;;;;;;;8.83;4.90;;;15.70;99.90;;;;;;5002315;28;20166;-93
2023/09/08 02:05:10;;;;;;;5.43;4.60;;;15.50;99.90;;;;;;5002251;28;20156;-93
2023/09/08 02:07:36;;;;;;;6.07;5.33;;;15.60;99.90;;;;;;5019750;28;20266;-93
2023/09/08 02:10:02;;;;;;;7.43;5.40;;;16.00;99.90;;;;;;5038072;28;20154;-93
2023/09/08 02:12:27;;;;;;;9.50;5.30;;;15.50;99.90;;;;;;5037876;28;20193;-93
2023/09/08 02:14:53;;;;;;;7.00;4.77;;;15.50;99.90;;;;;;5037990;28;20142;-93
2023/09/08 02:17:18;;;;;;;5.83;4.70;;;15.80;99.90;;;;;;5024891;28;20153;-93
2023/09/08 02:19:44;;;;;;;7.83;5.07;;;15.60;99.90;;;;;;5021466;28;20151;-93
2023/09/08 02:22:10;;;;;;;8.50;5.00;;;16.00;99.90;;;;;;5021490;28;20146;-93
2023/09/08 02:24:36;;;;;;;11.43;5.43;;;15.70;99.90;;;;;;5021485;28;20151;-92
2023/09/08 02:27:01;;;;;;;6.90;5.10;;;15.40;99.90;;;;;;5020780;28;20164;-93
2023/09/08 02:29:27;;;;;;;7.17;4.97;;;15.40;99.90;;;;;;5037668;28;20233;-91
2023/09/08 02:31:53;;;;;;;8.97;5.23;;;15.40;99.90;;;;;;5037715;28;20177;-93
2023/09/08 02:34:18;;;;;;;8.47;4.87;;;15.50;99.90;;;;;;5037537;28;20185;-93
2023/09/08 02:36:44;;;;;;;7.60;4.90;;;15.10;99.90;;;;;;5029908;28;20177;-93
2023/09/08 02:39:10;;;;;;;5.97;4.70;;;15.20;99.90;;;;;;5021125;28;20181;-93
2023/09/08 02:41:36;;;;;;;9.20;4.77;;;15.20;99.90;;;;;;5021125;28;20158;-93
2023/09/08 02:44:02;;;;;;;11.60;5.30;;;15.30;99.90;;;;;;5021174;28;20154;-93
2023/09/08 02:46:27;;;;;;;5.83;4.77;;;15.10;99.90;;;;;;5015715;28;20167;-92
2023/09/08 02:48:53;;;;;;;5.57;4.70;;;15.40;99.90;;;;;;5000377;28;20174;-93
2023/09/08 02:51:19;;;;;;;5.67;4.73;;;15.10;99.90;;;;;;5001391;28;20161;-94
2023/09/08 02:53:44;;;;;;;5.70;5.10;;;15.00;99.90;;;;;;5001251;28;20198;-93
2023/09/08 02:56:10;;;;;;;8.00;4.70;;;15.30;99.90;;;;;;5003366;28;20193;-93
2023/09/08 02:58:36;;;;;;;7.37;4.70;;;14.90;99.90;;;;;;5035052;28;20249;-93
2023/09/08 03:01:14;;;;;;;7.60;4.97;;;15.20;99.90;;;;;;5037153;28;20206;-93
2023/09/08 03:03:43;;;;;;;9.77;4.97;;;14.90;99.90;;;;;;5037082;28;20146;-93
2023/09/08 03:06:10;;;;;;;8.07;5.20;;;15.20;99.90;;;;;;5034813;28;20147;-94
2023/09/08 03:08:38;;;;;;;11.13;5.13;;;15.00;99.90;;;;;;5001073;28;20167;-94
2023/09/08 03:11:05;;;;;;;5.70;4.97;;;15.20;99.90;;;;;;5001080;28;20147;-93
2023/09/08 03:13:32;;;;;;;9.93;4.97;;;14.90;99.90;;;;;;5000936;28;20186;-93
2023/09/08 03:16:03;;;;;;;8.17;5.50;;;15.20;99.90;;;;;;5001006;28;20178;-93
2023/09/08 03:18:28;;;;;;;9.33;5.17;;;14.80;99.90;;;;;;5000991;28;20135;-92
2023/09/08 03:20:54;;;;;;;6.83;5.40;;;14.90;99.90;;;;;;5000841;28;20170;-92
2023/09/08 03:23:19;;;;;;;8.63;5.37;;;14.90;99.90;;;;;;5000866;28;20166;-92
2023/09/08 03:25:45;;;;;;;9.57;5.07;;;14.90;99.90;;;;;;5000807;28;20150;-93
2023/09/08 03:28:11;;;;;;;6.33;5.17;;;15.30;99.90;;;;;;5000859;28;20162;-91
2023/09/08 03:30:37;;;;;;;7.53;4.60;;;14.80;99.90;;;;;;5000641;28;20185;-93
2023/09/08 03:33:03;;;;;;;9.63;4.77;;;15.10;99.90;;;;;;5000578;28;20198;-93
2023/09/08 03:35:29;;;;;;;10.50;5.47;;;14.80;99.90;;;;;;5000582;28;20138;-93
2023/09/08 03:37:54;;;;;;;11.03;4.93;;;15.00;99.90;;;;;;5000522;28;20171;-92
2023/09/08 03:40:20;;;;;;;8.60;4.60;;;14.90;99.90;;;;;;5000387;28;20198;-93
2023/09/08 03:42:45;;;;;;;10.13;4.87;;;14.80;99.90;;;;;;5000403;28;20233;-93
2023/09/08 03:45:11;;;;;;;10.17;4.87;;;14.70;99.90;;;;;;5000408;28;20139;-93
2023/09/08 03:47:37;;;;;;;9.83;5.10;;;14.70;99.90;;;;;;5019274;28;20223;-93
2023/09/08 03:50:02;;;;;;;8.47;4.80;;;14.90;99.90;;;;;;5036143;28;20146;-93
2023/09/08 03:52:28;;;;;;;10.03;5.70;;;14.70;99.90;;;;;;5036086;28;20161;-92
2023/09/08 03:54:54;;;;;;;7.67;5.43;;;15.00;99.90;;;;;;5036084;28;20230;-94
2023/09/08 03:57:19;;;;;;;8.43;5.57;;;14.90;99.90;;;;;;5033176;28;20158;-92
2023/09/08 03:59:45;;;;;;;10.30;4.83;;;15.30;99.90;;;;;;5035852;28;20185;-93
2023/09/08 04:02:10;;;;;;;7.83;4.83;;;14.60;99.90;;;;;;5035806;28;20149;-93
2023/09/08 04:04:36;;;;;;;5.87;5.17;;;14.60;99.90;;;;;;5035963;28;20209;-93
2023/09/08 04:07:02;;;;;;;7.33;5.57;;;15.80;99.90;;;;;;5034253;28;20242;-92
2023/09/08 04:09:28;;;;;;;5.80;4.37;;;14.60;99.90;;;;;;5034530;28;20182;-92
2023/09/08 04:11:54;;;;;;;8.27;4.90;;;14.60;99.90;;;;;;5034431;28;20162;-94
2023/09/08 04:14:23;;;;;;;6.37;5.20;;;14.60;99.90;;;;;;5034348;28;20205;-92
2023/09/08 04:16:49;;;;;;;6.27;4.67;;;14.50;99.90;;;;;;5027269;28;20165;-92
2023/09/08 04:19:14;;;;;;;8.90;4.70;;;14.80;99.90;;;;;;5017869;28;20181;-92
2023/09/08 04:21:41;;;;;;;6.10;4.97;;;14.30;99.90;;;;;;5017965;28;20241;-93
2023/09/08 04:24:07;;;;;;;7.83;5.10;;;14.70;99.90;;;;;;5017842;28;20209;-92
2023/09/08 04:26:32;;;;;;;6.20;4.97;;;14.50;99.90;;;;;;5017223;28;20185;-91
2023/09/08 04:28:58;;;;;;;8.83;4.57;;;14.30;99.90;;;;;;5034073;28;20209;-93
2023/09/08 04:31:26;;;;;;;7.67;4.77;;;14.40;99.90;;;;;;5034008;28;20196;-93
2023/09/08 04:33:53;;;;;;;8.40;4.97;;;14.30;99.90;;;;;;5033936;28;20193;-94
2023/09/08 04:36:24;;;;;;;8.70;5.37;;;14.30;99.90;;;;;;5033281;28;20243;-93
2023/09/08 04:38:49;;;;;;;6.00;4.70;;;14.40;99.90;;;;;;5034000;28;20161;-93
2023/09/08 04:41:15;;;;;;;9.87;5.20;;;14.30;99.90;;;;;;5033775;28;20221;-93
2023/09/08 04:43:55;;;;;;;6.80;5.33;;;14.80;99.90;;;;;;5033941;28;20185;-94
2023/09/08 04:46:37;;;;;;;6.73;5.00;;;14.30;99.90;;;;;;5031060;28;20227;-93
2023/09/08 04:49:02;;;;;;;9.17;5.70;;;14.30;99.90;;;;;;4997838;28;20202;-93
2023/09/08 04:51:31;;;;;;;6.97;5.53;;;14.70;99.90;;;;;;4997894;28;20163;-93
2023/09/08 04:53:57;;;;;;;6.33;5.40;;;14.80;99.90;;;;;;4997628;28;20210;-95
2023/09/08 04:56:26;;;;;;;6.43;4.90;;;14.30;99.90;;;;;;4999446;28;20202;-93
2023/09/08 04:59:00;;;;;;;8.60;4.83;;;14.30;99.90;;;;;;5016983;28;20210;-93
2023/09/08 05:01:27;;;;;;;10.13;5.57;;;14.50;99.90;;;;;;5016687;28;20179;-93
2023/09/08 05:08:07;;;;;;;5.70;5.10;;;14.30;99.90;;;;;;5016298;28;20180;-93
2023/09/08 05:10:33;;;;;;;7.17;4.87;;;14.30;99.90;;;;;;5014994;28;20193;-94
2023/09/08 05:13:11;;;;;;;7.13;4.67;;;14.30;99.90;;;;;;5035233;28;20209;-94
2023/09/08 05:15:37;;;;;;;9.43;5.40;;;14.00;99.90;;;;;;5037535;28;20188;-94
2023/09/08 05:18:03;;;;;;;7.17;5.17;;;14.10;99.90;;;;;;5035445;28;20241;-94
2023/09/08 05:20:31;;;;;;;9.47;5.00;;;14.30;99.90;;;;;;5020979;28;20192;-94
2023/09/08 05:22:57;;;;;;;6.73;4.97;;;13.20;99.90;;;;;;5037424;28;20170;-94
2023/09/08 05:25:25;;;;;;;11.00;5.97;;;15.00;99.90;;;;;;5037369;28;20177;-94
2023/09/08 05:27:53;;;;;;;6.87;5.10;;;14.10;99.90;;;;;;5031209;28;20201;-93
2023/09/08 05:30:19;;;;;;;10.77;5.27;;;14.30;99.90;;;;;;5020540;28;20261;-94
2023/09/08 05:32:44;;;;;;;7.93;5.20;;;14.10;99.90;;;;;;5037245;28;20193;-93
2023/09/08 05:35:10;;;;;;;5.43;4.93;;;14.10;99.90;;;;;;5037151;28;20244;-94
2023/09/08 05:37:36;;;;;;;8.73;5.43;;;14.20;99.90;;;;;;5037239;28;20177;-95
2023/09/08 05:40:04;;;;;;;8.07;5.80;;;14.10;99.90;;;;;;5034152;28;20205;-94
2023/09/08 05:42:33;;;;;;;7.67;5.37;;;14.10;99.90;;;;;;5020204;28;20253;-94
2023/09/08 05:44:59;;;;;;;8.03;5.57;;;14.20;99.90;;;;;;5020681;28;20158;-94
2023/09/08 05:47:25;;;;;;;7.97;5.57;;;14.20;99.90;;;;;;5011764;28;20189;-94
2023/09/08 05:49:50;;;;;;;7.27;5.20;;;14.10;99.90;;;;;;5000918;28;20210;-95
2023/09/08 05:52:16;;;;;;;7.17;5.03;;;14.30;99.90;;;;;;5000777;28;20166;-92
2023/09/08 05:54:42;;;;;;;8.27;5.40;;;14.20;99.90;;;;;;5000862;28;20166;-94
2023/09/08 05:57:11;;;;;;;9.67;5.10;;;14.10;99.90;;;;;;5005318;28;20169;-94
2023/09/08 05:59:36;;;;;;;5.77;4.70;;;14.10;99.90;;;;;;5036642;28;20178;-93
2023/09/08 06:02:02;;;;;;;7.10;4.97;;;14.50;99.90;;;;;;5034600;28;20184;-93
2023/09/08 06:04:28;;;;;;;7.10;5.10;;;14.10;99.90;;;;;;5036856;28;20170;-94
2023/09/08 06:06:53;;;;;;;9.90;5.20;;;14.50;99.90;;;;;;5036811;28;20162;-93
2023/09/08 06:09:19;;;;;;;7.43;5.90;;;14.40;99.90;;;;;;5036566;28;20181;-92
2023/09/08 06:11:46;;;;;;;7.43;5.30;;;14.10;99.90;;;;;;5025663;28;20220;-94
2023/09/08 06:14:11;;;;;;;7.90;5.00;;;14.20;99.90;;;;;;5019995;28;20237;-92
2023/09/08 06:16:37;;;;;;;11.83;5.00;;;14.50;99.90;;;;;;5020042;28;20177;-93
2023/09/08 06:19:03;;;;;;;6.30;4.67;;;14.30;99.90;;;;;;5019742;28;20186;-96
2023/09/08 06:21:40;;;;;;;9.03;4.50;;;14.30;99.90;;;;;;5019878;28;20158;-95
2023/09/08 06:24:06;;;;;;;10.27;4.77;;;14.50;99.90;;;;;;5003985;28;20174;-95
2023/09/08 06:26:36;;;;;;;7.07;4.93;;;14.30;99.90;;;;;;5036307;28;20170;-94
2023/09/08 06:29:02;;;;;;;6.90;5.17;;;14.40;99.90;;;;;;5035963;28;20178;-95
2023/09/08 06:31:28;;;;;;;5.70;5.13;;;14.40;99.90;;;;;;5036199;28;20237;-95
2023/09/08 06:33:54;;;;;;;7.03;5.50;;;14.50;99.90;;;;;;5035987;28;20193;-94
2023/09/08 06:36:19;;;;;;;9.03;5.47;;;14.50;99.90;;;;;;5034663;28;20166;-94
2023/09/08 06:38:45;;;;;;;12.73;5.53;;;14.50;99.90;;;;;;4999949;28;20181;-92
2023/09/08 06:41:14;;;;;;;7.83;5.30;;;14.60;99.90;;;;;;4999843;28;20186;-94
2023/09/08 06:43:43;;;;;;;8.70;5.60;;;14.70;99.90;;;;;;4999989;28;20167;-94
2023/09/08 06:46:09;;;;;;;9.37;5.53;;;14.70;99.90;;;;;;4999935;28;20170;-95
2023/09/08 06:48:35;;;;;;;8.37;5.47;;;15.20;99.90;;;;;;4999904;28;20245;-93
2023/09/08 06:51:01;;;;;;;9.10;5.80;;;14.70;99.90;;;;;;4999928;28;20171;-94
2023/09/08 06:53:26;;;;;;;7.47;5.80;;;14.80;99.90;;;;;;5000994;28;20229;-94
2023/09/08 06:55:55;;;;;;;7.27;5.73;;;15.60;99.90;;;;;;5001655;28;20170;-92
2023/09/08 06:58:21;;;;;;;9.53;5.77;;;15.00;99.90;;;;;;5035575;28;20162;-95
2023/09/08 07:00:46;;;;;;;11.87;7.57;;;15.00;99.90;;;;;;5035562;28;20191;-93
2023/09/08 07:03:12;;;;;;;8.77;7.87;;;15.10;99.90;;;;;;5035549;28;20161;-93
2023/09/08 07:05:41;;;;;;;10.27;8.60;;;15.20;99.90;;;;;;5035374;28;20220;-94
2023/09/08 07:08:06;;;;;;;11.80;8.63;;;15.40;99.90;;;;;;5035391;28;20173;-94
2023/09/08 07:10:32;;;;;;;13.57;9.37;;;15.60;99.90;;;;;;5020291;28;20182;-95
2023/09/08 07:13:04;;;;;;;13.33;9.67;;;15.70;99.90;;;;;;5015414;28;20208;-93
2023/09/08 07:15:34;;;;;;;10.30;9.33;;;15.80;99.90;;;;;;5035283;28;20173;-93
2023/09/08 07:18:03;;;;;;;11.47;9.00;;;16.00;99.90;;;;;;5035139;28;20193;-94
2023/09/08 07:20:34;;;;;;;9.87;8.87;;;16.00;99.90;;;;;;5034944;28;20196;-93
2023/09/08 07:23:03;;;;;;;11.90;8.47;;;16.20;99.90;;;;;;5035073;28;20185;-94
2023/09/08 07:25:28;;;;;;;13.07;8.97;;;16.30;99.90;;;;;;5035003;28;20154;-94
2023/09/08 07:27:57;;;;;;;12.43;8.33;;;16.40;99.90;;;;;;5018771;28;20184;-93
2023/09/08 07:30:25;;;;;;;9.03;7.90;;;16.50;99.90;;;;;;5017936;28;20205;-94
2023/09/08 07:32:51;;;;;;;9.00;7.40;;;17.10;99.90;;;;;;5018449;28;20185;-94
2023/09/08 07:35:20;;;;;;;8.07;7.27;;;16.80;99.90;;;;;;5017870;28;20181;-94
2023/09/08 07:37:48;;;;;;;11.17;7.40;;;16.90;99.90;;;;;;5018470;28;20197;-95
2023/09/08 07:40:14;;;;;;;7.27;6.57;;;17.50;99.90;;;;;;5018162;28;20182;-94
2023/09/08 07:42:42;;;;;;;8.40;6.67;;;17.20;99.90;;;;;;5014649;28;20209;-94
2023/09/08 07:45:09;;;;;;;7.37;6.20;;;17.70;99.90;;;;;;4998866;28;20202;-94
2023/09/08 07:47:43;;;;;;;7.33;5.67;;;17.60;99.90;;;;;;5016975;28;20185;-94
2023/09/08 07:50:26;;;;;;;5.20;4.67;;;17.50;99.90;;;;;;5034559;28;20224;-94
2023/09/08 07:53:01;;;;;;;8.87;5.20;;;17.70;99.90;;;;;;5034569;28;20185;-94
2023/09/08 07:55:33;;;;;;;7.67;4.73;;;17.80;99.90;;;;;;5034530;28;20180;-94
2023/09/08 07:57:59;;;;;;;7.37;4.70;;;18.00;99.90;;;;;;5018030;28;20150;-93
2023/09/08 08:00:24;;;;;;;5.47;4.03;;;18.10;99.90;;;;;;5028764;28;20196;-93
2023/09/08 08:02:54;;;;;;;5.97;4.13;;;18.30;99.90;;;;;;5017892;28;20161;-93
2023/09/08 08:05:20;;;;;;;7.93;3.93;;;18.30;99.90;;;;;;5017883;28;20255;-93
2023/09/08 08:07:46;;;;;;;4.50;3.40;;;18.40;99.90;;;;;;5017958;28;20187;-93
2023/09/08 08:10:12;;;;;;;6.83;4.13;;;18.80;99.90;;;;;;5017790;28;20293;-94
2023/09/08 08:12:39;;;;;;;6.83;4.53;;;19.10;99.90;;;;;;5017617;28;20194;-93
2023/09/08 08:15:10;;;;;;;4.20;3.80;;;18.40;99.90;;;;;;5017768;28;20221;-94
2023/09/08 08:17:36;;;;;;;4.87;3.90;;;18.90;99.90;;;;;;5007419;28;20197;-94
2023/09/08 08:20:16;;;;;;;5.27;4.10;;;18.90;99.90;;;;;;4998106;28;20224;-92
2023/09/08 08:22:44;;;;;;;4.90;3.60;;;19.20;99.90;;;;;;4998277;28;20151;-92
2023/09/08 08:25:13;;;;;;;4.23;3.77;;;19.30;99.90;;;;;;4998064;28;20209;-94
2023/09/08 08:27:42;;;;;;;5.90;3.70;;;19.40;99.90;;;;;;4998509;28;20206;-94
2023/09/08 08:30:11;;;;;;;3.83;3.43;;;19.70;99.90;;;;;;4997953;28;20178;-93
2023/09/08 08:33:04;;;;;;;7.30;4.03;;;19.60;99.90;;;;;;4997991;28;20274;-94
2023/09/08 08:35:32;;;;;;;5.67;3.50;;;20.30;99.90;;;;;;5016402;28;20187;-94
2023/09/08 08:38:11;;;;;;;278.43;19.63;;;19.90;99.90;;;;;;5016613;28;20237;-93
2023/09/08 08:41:06;;;;;;;5.73;3.50;;;20.40;99.90;;;;;;5033531;28;20196;-93
2023/09/08 08:43:32;;;;;;;6.77;3.97;;;20.20;99.90;;;;;;5031638;28;20193;-94
2023/09/08 08:46:05;;;;;;;5.57;3.90;;;20.20;99.90;;;;;;5031527;28;20173;-94
2023/09/08 08:48:34;;;;;;;4.83;3.60;;;20.30;99.90;;;;;;5032642;28;20196;-94
2023/09/08 08:51:00;;;;;;;5.53;3.60;;;20.40;1.00;;;;;;5033638;28;20166;-93
2023/09/08 08:53:32;;;;;;;5.70;3.50;;;20.50;1.00;;;;;;5031021;28;20261;-94
2023/09/08 08:56:22;;;;;;;5.17;3.37;;;20.60;1.00;;;;;;5033146;28;20178;-96
2023/09/08 08:59:09;;;;;;;9.60;3.83;;;20.90;99.90;;;;;;5033296;28;20292;-94
2023/09/08 09:01:39;;;;;;;6.80;3.80;;;21.00;99.90;;;;;;5016576;28;20177;-95
2023/09/08 09:04:15;;;;;;;4.30;3.40;;;21.10;99.90;;;;;;5021684;28;20188;-95
2023/09/08 09:06:41;;;;;;;4.93;3.73;;;21.20;99.90;;;;;;5005996;28;20186;-94
2023/09/08 09:09:15;;;;;;;5.17;3.20;;;21.30;99.90;;;;;;5013588;28;20194;-95
2023/09/08 09:11:43;;;;;;;4.33;3.43;;;21.30;1.00;;;;;;5005406;28;20189;-95
2023/09/08 09:14:09;;;;;;;5.37;3.60;;;21.60;99.90;;;;;;5027952;28;20206;-95
2023/09/08 09:16:47;;;;;;;6.17;3.57;;;21.40;99.90;;;;;;5030817;28;20170;-96
2023/09/08 09:19:31;;;;;;;3.57;3.27;;;21.60;99.90;;;;;;5017909;28;20311;-94
2023/09/08 09:22:04;;;;;;;5.30;3.73;;;21.60;99.90;;;;;;5027780;28;20193;-94
2023/09/08 09:24:38;;;;;;;4.87;3.43;;;22.00;99.90;;;;;;5022777;28;20165;-95
2023/09/08 09:27:08;;;;;;;5.00;3.77;;;21.80;99.90;;;;;;5016280;28;20181;-95
2023/09/08 09:29:44;;;;;;;4.80;3.90;;;22.00;99.90;;;;;;5016093;28;20174;-94
2023/09/08 09:32:10;;;;;;;8.37;4.13;;;21.90;99.90;;;;;;5025090;23;20209;-81
2023/09/08 09:34:36;;;;;;;4.10;3.50;;;22.00;99.90;;;;;;4978446;28;20163;-81
2023/09/08 09:37:05;;;;;;;6.13;3.50;;;22.20;99.90;;;;;;4976866;28;20183;-81
2023/09/08 09:39:30;;;;;;;5.00;3.70;;;22.20;99.90;;;;;;4961640;28;20225;-81
2023/09/08 09:41:57;;;;;;;6.63;3.73;;;22.40;99.90;;;;;;4980583;28;20198;-81
2023/09/08 09:44:24;;;;;;;8.43;3.83;;;22.40;99.90;;;;;;4990783;28;20186;-81
2023/09/08 09:46:52;;;;;;;3.93;3.53;;;22.50;99.90;;;;;;4986828;28;20199;-79
2023/09/08 09:49:18;;;;;;;9.43;3.63;;;22.60;99.90;;;;;;4986169;28;20185;-79
2023/09/08 09:51:49;;;;;;;6.30;3.63;;;22.60;99.90;;;;;;4977293;28;20221;-78
2023/09/08 09:54:15;;;;;;;4.30;3.73;;;22.70;99.90;;;;;;4975490;28;20199;-77
2023/09/08 09:56:41;;;;;;;4.57;3.27;;;22.80;99.90;;;;;;4972792;28;20630;-78
2023/09/08 09:59:12;;;;;;;4.97;3.77;;;22.70;99.90;;;;;;4977989;28;20178;-81
2023/09/08 10:01:39;;;;;;;7.40;3.50;;;22.90;99.90;;;;;;4982771;28;20642;-80
2023/09/08 10:04:06;;;;;;;9.70;4.03;;;22.90;99.90;;;;;;4984673;28;20309;-80
2023/09/08 10:06:35;;;;;;;7.33;4.13;;;23.00;99.90;;;;;;4981723;28;20178;-81
2023/09/08 10:09:08;;;;;;;4.77;3.30;;;23.10;99.90;;;;;;4980794;28;20179;-81
2023/09/08 10:11:50;;;;;;;6.80;3.80;;;23.30;99.90;;;;;;4981029;28;20190;-80
2023/09/08 10:14:16;;;;;;;6.30;3.83;;;23.40;99.90;;;;;;4980891;28;20205;-80
2023/09/08 10:16:45;;;;;;;4.00;3.30;;;23.40;99.90;;;;;;4979842;28;20178;-81
2023/09/08 10:19:11;;;;;;;6.20;3.93;;;23.40;99.90;;;;;;4981625;28;20171;-81
2023/09/08 10:21:41;;;;;;;4.60;3.70;;;23.50;99.90;;;;;;4979949;28;20533;-81
2023/09/08 10:24:23;;;;;;;8.30;4.27;;;23.50;99.90;;;;;;4982305;28;20226;-81
2023/09/08 10:26:58;;;;;;;5.97;3.93;;;23.70;99.90;;;;;;4979562;28;20174;-81
2023/09/08 10:29:24;;;;;;;5.23;3.90;;;23.80;99.90;;;;;;4981103;28;20208;-80
2023/09/08 10:31:50;;;;;;;4.28;3.70;;;24.00;99.90;;;;;;4977976;28;20624;-79
2023/09/08 10:34:17;;;;;;;4.30;3.40;;;23.90;99.90;;;;;;4977385;28;20237;-79
2023/09/08 10:36:43;;;;;;;3.43;3.10;;;23.90;99.90;;;;;;4978338;28;20178;-81
2023/09/08 10:39:29;;;;;;;4.90;3.60;;;24.00;99.90;;;;;;4980185;28;20774;-81
2023/09/08 10:42:17;;;;;;;4.20;3.33;;;24.20;99.90;;;;;;4978936;28;20609;-81
2023/09/08 10:44:49;;;;;;;4.90;4.03;;;24.20;99.90;;;;;;4978734;28;20654;-80
2023/09/08 10:47:47;;;;;;;6.60;3.78;;;24.20;99.90;;;;;;4979454;28;20163;-81
2023/09/08 10:50:19;;;;;;;4.55;4.00;;;24.40;99.90;;;;;;4967961;28;20186;-81
2023/09/08 10:53:03;;;;;;;4.93;3.42;;;24.60;99.90;;;;;;4980036;28;20198;-79
2023/09/08 10:55:36;;;;;;;7.75;3.47;;;24.60;99.90;;;;;;4980423;28;20163;-80
2023/09/08 10:58:03;;;;;;;6.80;4.00;;;24.70;99.90;;;;;;4978745;28;20531;-80
2023/09/08 11:00:43;;;;;;;6.07;3.92;;;24.80;96.30;;;;;;4978267;28;20163;-80
2023/09/08 11:03:09;;;;;;;5.57;3.58;;;25.00;79.70;;;;;;4978023;28;20170;-79
2023/09/08 11:05:35;;;;;;;4.38;3.80;;;25.00;99.90;;;;;;4979587;28;20191;-79
2023/09/08 11:08:01;;;;;;;5.78;3.85;;;25.00;99.90;;;;;;4979049;28;20178;-79
2023/09/08 11:10:28;;;;;;;6.07;3.58;;;25.00;99.90;;;;;;4977667;28;20185;-79
2023/09/08 11:12:54;;;;;;;6.05;3.30;;;24.90;99.90;;;;;;4978702;28;20209;-80
2023/09/08 11:15:20;;;;;;;4.72;3.72;;;25.00;89.40;;;;;;4978876;28;20171;-80
2023/09/08 11:17:50;;;;;;;6.90;3.42;;;25.10;87.90;;;;;;4978824;28;20193;-80
2023/09/08 11:20:17;;;;;;;7.35;3.45;;;25.10;98.20;;;;;;4978905;28;20150;-80
2023/09/08 11:22:43;;;;;;;3.75;3.45;;;25.30;99.90;;;;;;4977200;28;20314;-80
2023/09/08 11:25:12;;;;;;;9.13;3.60;;;25.30;99.90;;;;;;4979009;28;20630;-80
2023/09/08 11:27:39;;;;;;;5.95;3.95;;;25.50;81.50;;;;;;4976897;28;20182;-80
2023/09/08 11:30:06;;;;;;;5.45;3.70;;;25.50;75.50;;;;;;4979663;28;20182;-81
2023/09/08 11:32:35;;;;;;;7.45;4.20;;;25.80;1.00;;;;;;4982409;28;20221;-81
2023/09/08 11:35:09;;;;;;;4.25;3.75;;;25.90;1.00;;;;;;4982332;28;20222;-81
2023/09/08 11:37:39;;;;;;;7.65;4.10;;;25.90;1.00;;;;;;4966449;28;20202;-81
2023/09/08 11:40:13;;;;;;;4.22;3.65;;;25.90;1.00;;;;;;4982077;28;20182;-81
2023/09/08 11:42:46;;;;;;;4.75;3.45;;;25.90;1.00;;;;;;4981738;28;20615;-80
2023/09/08 11:45:13;;;;;;;5.28;3.72;;;26.10;1.00;;;;;;4981027;28;20583;-81
2023/09/08 11:47:41;;;;;;;7.13;4.10;;;26.00;1.00;;;;;;4981998;28;20265;-82
2023/09/08 11:50:07;;;;;;;6.05;3.30;;;26.10;1.00;;;;;;4978151;28;20189;-82
2023/09/08 11:52:33;;;;;;;4.35;3.95;;;26.20;1.00;;;;;;4978272;28;20210;-81
2023/09/08 11:54:59;;;;;;;6.80;4.03;;;26.30;1.00;;;;;;4979002;28;20237;-82
2023/09/08 11:57:24;;;;;;;4.28;3.53;;;26.30;1.00;;;;;;4980020;28;20213;-81
2023/09/08 11:59:51;;;;;;;6.00;4.15;;;26.40;1.00;;;;;;4980972;28;20542;-82
2023/09/08 12:02:17;;;;;;;4.57;3.25;;;26.30;1.00;;;;;;4980280;28;20220;-81
2023/09/08 12:04:42;;;;;;;6.85;3.47;;;26.40;1.00;;;;;;4979592;28;20174;-81
2023/09/08 12:07:16;;;;;;;6.57;4.10;;;26.60;1.00;;;;;;4978650;28;20202;-80
2023/09/08 12:09:41;;;;;;;5.57;3.90;;;26.60;1.00;;;;;;4977882;28;20159;-81
2023/09/08 12:12:11;;;;;;;6.50;4.00;;;26.80;1.00;;;;;;4980097;28;20301;-80
2023/09/08 12:14:43;;;;;;;3.60;3.22;;;26.80;1.00;;;;;;4981339;28;20219;-81
2023/09/08 12:17:09;;;;;;;7.13;3.85;;;26.80;1.00;;;;;;4981482;28;20170;-81
2023/09/08 12:19:38;;;;;;;3.95;3.47;;;26.80;1.00;;;;;;4981886;28;20186;-81
2023/09/08 12:22:12;;;;;;;4.78;3.85;;;26.90;1.00;;;;;;4981874;28;20186;-82
2023/09/08 12:24:59;;;;;;;5.75;3.75;;;26.90;1.00;;;;;;4981308;28;20186;-81
2023/09/08 12:27:26;;;;;;;8.48;4.20;;;27.00;1.00;;;;;;4982644;28;20163;-81
2023/09/08 12:30:01;;;;;;;5.28;3.92;;;27.00;1.00;;;;;;4981332;28;20177;-81
2023/09/08 12:32:30;;;;;;;8.85;3.75;;;27.00;1.00;;;;;;4981645;28;20209;-82
2023/09/08 12:34:56;;;;;;;4.57;3.83;;;27.10;1.00;;;;;;4980133;28;20182;-81
2023/09/08 12:37:29;;;;;;;6.80;3.90;;;27.30;1.00;;;;;;4981139;28;20669;-82
2023/09/08 12:39:56;;;;;;;11.85;4.15;;;27.30;99.90;;;;;;4981066;28;20630;-82
2023/09/08 12:42:25;;;;;;;4.05;3.65;;;27.30;1.00;;;;;;4980973;28;20567;-83
2023/09/08 12:44:52;;;;;;;6.80;3.97;;;27.40;1.00;;;;;;4978959;28;20181;-82
2023/09/08 12:47:20;;;;;;;9.43;3.80;;;27.40;1.00;;;;;;4978456;28;20174;-82
2023/09/08 12:49:46;;;;;;;4.40;3.88;;;27.30;1.00;;;;;;4977877;28;20645;-83
2023/09/08 12:52:11;;;;;;;6.80;4.07;;;27.40;1.00;;;;;;4979141;28;20236;-79
2023/09/08 12:54:37;;;;;;;7.05;3.83;;;27.40;1.00;;;;;;4977151;28;20292;-82
2023/09/08 12:57:03;;;;;;;8.35;3.85;;;27.40;1.00;;;;;;4977030;28;20677;-84